Time;durP1;ratioP1;P1;durP2;ratioP2;P2;SDS_P1;SDS_P2;PMS_P1;PMS_P2;Temp;Humidity;BMP_temperature;BMP_pressure;BME280_temperature;BME280_humidity;BME280_pressure;Samples;Min_cycle;Max_cycle;Signal;HPM_P1;HPM_P2
2022/10/16 00:01:40;;;;;;;7.50;4.03;;;;;;;;;;7379752;19;20018;-78
2022/10/16 00:04:05;;;;;;;8.00;4.10;;;;;;;;;;7383142;19;20479;-77
2022/10/16 00:06:31;;;;;;;10.18;3.90;;;;;;;;;;7378019;19;19995;-78
2022/10/16 00:08:57;;;;;;;7.85;3.88;;;;;;;;;;7343249;19;20006;-77
2022/10/16 00:11:48;;;;;;;8.60;4.57;;;;;;;;;;7369651;19;20002;-77
2022/10/16 00:14:14;;;;;;;9.15;4.25;;;;;;;;;;7378087;19;20038;-77
2022/10/16 00:16:40;;;;;;;7.38;4.10;;;;;;;;;;7375577;19;20052;-77
2022/10/16 00:19:05;;;;;;;8.57;4.20;;;;;;;;;;7373181;19;20027;-76
2022/10/16 00:21:31;;;;;;;7.35;4.00;;;;;;;;;;7375421;19;20484;-78
2022/10/16 00:24:00;;;;;;;8.23;4.00;;;;;;;;;;7375856;19;20097;-77
2022/10/16 00:26:26;;;;;;;8.55;3.42;;;;;;;;;;7354076;19;19998;-76
2022/10/16 00:28:52;;;;;;;9.27;3.80;;;;;;;;;;7369090;19;20010;-76
2022/10/16 00:31:18;;;;;;;7.07;3.88;;;;;;;;;;7376500;19;20536;-76
2022/10/16 00:33:44;;;;;;;9.20;3.80;;;;;;;;;;7380589;19;20093;-76
2022/10/16 00:36:10;;;;;;;7.50;3.70;;;;;;;;;;7379095;19;20007;-76
2022/10/16 00:38:37;;;;;;;7.22;3.35;;;;;;;;;;7376082;19;20014;-76
2022/10/16 00:41:02;;;;;;;6.90;3.42;;;;;;;;;;7381907;19;20341;-77
2022/10/16 00:43:40;;;;;;;9.10;3.35;;;;;;;;;;7382658;19;20022;-77
2022/10/16 00:46:11;;;;;;;7.80;3.15;;;;;;;;;;7378957;19;20373;-76
2022/10/16 00:48:36;;;;;;;7.20;3.20;;;;;;;;;;7375319;19;20022;-76
2022/10/16 00:51:02;;;;;;;7.10;3.42;;;;;;;;;;7376570;19;20010;-76
2022/10/16 00:53:27;;;;;;;7.07;3.50;;;;;;;;;;7371444;19;19998;-77
2022/10/16 00:55:53;;;;;;;7.03;3.30;;;;;;;;;;7380095;19;20027;-77
2022/10/16 00:58:19;;;;;;;6.68;3.20;;;;;;;;;;7375588;19;20022;-76
2022/10/16 01:00:44;;;;;;;8.43;3.05;;;;;;;;;;7377590;19;20539;-77
2022/10/16 01:03:23;;;;;;;9.37;3.40;;;;;;;;;;7377967;19;20078;-77
2022/10/16 01:05:53;;;;;;;7.80;3.33;;;;;;;;;;7379190;19;20263;-76
2022/10/16 01:08:21;;;;;;;8.90;2.78;;;;;;;;;;7378542;19;20011;-76
2022/10/16 01:10:50;;;;;;;6.18;2.72;;;;;;;;;;7377984;19;20031;-76
2022/10/16 01:13:21;;;;;;;7.28;2.90;;;;;;;;;;7379674;19;20002;-76
2022/10/16 01:16:07;;;;;;;8.65;3.10;;;;;;;;;;7376147;19;20823;-76
2022/10/16 01:18:32;;;;;;;15.77;3.55;;;;;;;;;;7379230;19;20348;-76
2022/10/16 01:21:04;;;;;;;12.13;4.00;;;;;;;;;;7375727;19;20005;-76
2022/10/16 01:23:48;;;;;;;7.93;4.10;;;;;;;;;;7378057;19;20600;-76
2022/10/16 01:26:13;;;;;;;10.43;3.83;;;;;;;;;;7375468;19;20002;-76
2022/10/16 01:28:41;;;;;;;11.48;4.43;;;;;;;;;;7376588;19;20014;-77
2022/10/16 01:31:08;;;;;;;14.57;4.70;;;;;;;;;;7380308;19;20522;-76
2022/10/16 01:33:43;;;;;;;11.15;5.57;;;;;;;;;;7379476;19;20018;-77
2022/10/16 01:36:14;;;;;;;12.32;5.47;;;;;;;;;;7378423;19;20011;-76
2022/10/16 01:38:40;;;;;;;8.52;5.03;;;;;;;;;;7373378;19;20014;-77
2022/10/16 01:41:09;;;;;;;10.75;5.30;;;;;;;;;;7380275;19;20013;-77
2022/10/16 01:43:36;;;;;;;11.25;5.07;;;;;;;;;;7378837;19;20494;-77
2022/10/16 01:46:01;;;;;;;8.10;5.18;;;;;;;;;;7371087;19;20006;-78
2022/10/16 01:48:28;;;;;;;7.78;4.90;;;;;;;;;;7376150;19;20010;-77
2022/10/16 01:50:57;;;;;;;9.98;5.28;;;;;;;;;;7379092;19;20002;-77
2022/10/16 01:53:24;;;;;;;12.65;4.40;;;;;;;;;;7372461;19;20011;-77
2022/10/16 01:55:50;;;;;;;11.05;5.90;;;;;;;;;;7376980;19;20006;-76
2022/10/16 01:58:15;;;;;;;10.02;4.93;;;;;;;;;;7378886;19;20456;-76
2022/10/16 02:00:43;;;;;;;12.98;5.78;;;;;;;;;;7373394;19;20338;-77
2022/10/16 02:03:10;;;;;;;8.68;6.03;;;;;;;;;;7374215;19;20048;-77
2022/10/16 02:05:41;;;;;;;9.65;5.47;;;;;;;;;;7376141;19;19998;-77
2022/10/16 02:08:06;;;;;;;10.80;6.88;;;;;;;;;;7372160;19;20081;-77
2022/10/16 02:10:32;;;;;;;21.13;7.50;;;;;;;;;;7372952;19;20032;-77
2022/10/16 02:13:00;;;;;;;14.02;7.30;;;;;;;;;;7378142;19;20422;-76
2022/10/16 02:15:25;;;;;;;12.25;7.63;;;;;;;;;;7371954;19;20451;-77
2022/10/16 02:17:51;;;;;;;14.68;8.35;;;;;;;;;;7370950;19;20070;-77
2022/10/16 02:20:16;;;;;;;10.30;7.80;;;;;;;;;;7377746;19;19998;-78
2022/10/16 02:22:46;;;;;;;18.70;9.75;;;;;;;;;;7375266;19;20255;-77
2022/10/16 02:25:37;;;;;;;12.63;9.70;;;;;;;;;;7373516;19;20010;-76
2022/10/16 02:28:06;;;;;;;15.00;9.88;;;;;;;;;;7357927;19;20010;-77
2022/10/16 02:30:43;;;;;;;14.13;9.82;;;;;;;;;;7375604;19;20395;-76
2022/10/16 02:33:09;;;;;;;14.30;9.50;;;;;;;;;;7370931;19;20006;-77
2022/10/16 02:35:35;;;;;;;20.02;10.52;;;;;;;;;;7372370;19;20484;-76
2022/10/16 02:38:00;;;;;;;13.32;9.68;;;;;;;;;;7374580;19;20036;-77
2022/10/16 02:40:26;;;;;;;14.18;10.82;;;;;;;;;;7377164;19;20018;-77
2022/10/16 02:42:52;;;;;;;13.77;10.57;;;;;;;;;;7377635;19;20105;-76
2022/10/16 02:45:18;;;;;;;14.35;10.43;;;;;;;;;;7371749;19;20092;-77
2022/10/16 02:47:43;;;;;;;16.08;11.35;;;;;;;;;;7375535;19;19999;-75
2022/10/16 02:50:08;;;;;;;17.58;10.48;;;;;;;;;;7376830;19;20011;-76
2022/10/16 02:52:33;;;;;;;19.35;11.23;;;;;;;;;;7369567;19;20010;-77
2022/10/16 02:54:59;;;;;;;21.10;11.52;;;;;;;;;;7375945;19;19998;-76
2022/10/16 02:57:24;;;;;;;15.80;10.15;;;;;;;;;;7372341;19;20014;-76
2022/10/16 02:59:49;;;;;;;16.97;10.67;;;;;;;;;;7376427;19;21069;-77
2022/10/16 03:02:14;;;;;;;18.92;10.32;;;;;;;;;;7370887;19;20283;-76
2022/10/16 03:04:39;;;;;;;19.47;10.23;;;;;;;;;;7373111;19;20252;-76
2022/10/16 03:07:05;;;;;;;14.30;10.18;;;;;;;;;;7374238;19;20915;-77
2022/10/16 03:09:30;;;;;;;16.67;10.00;;;;;;;;;;7377074;19;20026;-76
2022/10/16 03:11:55;;;;;;;15.25;10.13;;;;;;;;;;7377264;19;20267;-76
2022/10/16 03:14:20;;;;;;;20.55;9.90;;;;;;;;;;7376020;19;20007;-77
2022/10/16 03:16:46;;;;;;;14.25;9.52;;;;;;;;;;7378657;19;20078;-77
2022/10/16 03:19:11;;;;;;;14.45;9.15;;;;;;;;;;7382705;19;20041;-77
2022/10/16 03:21:36;;;;;;;12.23;9.33;;;;;;;;;;7377170;19;20013;-77
2022/10/16 03:24:01;;;;;;;17.67;8.45;;;;;;;;;;7377810;19;20296;-77
2022/10/16 03:26:26;;;;;;;13.95;9.23;;;;;;;;;;7380974;19;20491;-76
2022/10/16 03:28:52;;;;;;;13.37;8.63;;;;;;;;;;7378298;19;20333;-77
2022/10/16 03:31:17;;;;;;;16.27;9.45;;;;;;;;;;7379548;19;20795;-77
2022/10/16 03:33:42;;;;;;;13.00;8.83;;;;;;;;;;7380595;19;20612;-76
2022/10/16 03:36:07;;;;;;;14.97;8.53;;;;;;;;;;7383183;19;20247;-77
2022/10/16 03:38:32;;;;;;;13.50;8.27;;;;;;;;;;7381302;19;20566;-76
2022/10/16 03:40:58;;;;;;;13.90;7.97;;;;;;;;;;7381406;19;20471;-77
2022/10/16 03:43:23;;;;;;;11.98;7.53;;;;;;;;;;7384266;19;20074;-76
2022/10/16 03:45:49;;;;;;;10.27;7.17;;;;;;;;;;7378777;19;20002;-76
2022/10/16 03:48:15;;;;;;;11.35;7.25;;;;;;;;;;7380552;19;20770;-76
2022/10/16 03:50:40;;;;;;;11.13;7.63;;;;;;;;;;7378958;19;20010;-76
2022/10/16 03:53:05;;;;;;;12.40;7.25;;;;;;;;;;7380097;19;20252;-77
2022/10/16 03:55:30;;;;;;;10.37;7.00;;;;;;;;;;7381442;19;20770;-76
2022/10/16 03:57:56;;;;;;;10.32;7.18;;;;;;;;;;7381305;19;20275;-76
2022/10/16 04:00:21;;;;;;;11.63;7.60;;;;;;;;;;7382575;19;20089;-76
2022/10/16 04:02:46;;;;;;;10.03;6.83;;;;;;;;;;7376000;19;20260;-76
2022/10/16 04:05:11;;;;;;;9.57;6.63;;;;;;;;;;7381968;19;20562;-76
2022/10/16 04:07:37;;;;;;;12.15;7.05;;;;;;;;;;7378112;19;20013;-77
2022/10/16 04:10:03;;;;;;;10.50;6.55;;;;;;;;;;7382956;19;20412;-76
2022/10/16 04:12:28;;;;;;;11.90;6.95;;;;;;;;;;7382281;19;19990;-76
2022/10/16 04:14:53;;;;;;;11.03;6.50;;;;;;;;;;7374304;19;20007;-76
2022/10/16 04:17:18;;;;;;;11.73;6.97;;;;;;;;;;7382031;19;20232;-77
2022/10/16 04:19:43;;;;;;;9.55;6.80;;;;;;;;;;7382047;19;20798;-77
2022/10/16 04:22:09;;;;;;;10.77;6.17;;;;;;;;;;7376349;19;19995;-77
2022/10/16 04:24:34;;;;;;;8.80;6.50;;;;;;;;;;7378796;19;20309;-78
2022/10/16 04:26:59;;;;;;;10.13;6.70;;;;;;;;;;7374342;19;20265;-76
2022/10/16 04:29:24;;;;;;;9.07;6.00;;;;;;;;;;7379943;19;19991;-77
2022/10/16 04:31:49;;;;;;;9.93;6.33;;;;;;;;;;7347793;19;20246;-77
2022/10/16 04:34:15;;;;;;;8.90;5.85;;;;;;;;;;7373852;19;20806;-77
2022/10/16 04:36:40;;;;;;;10.18;5.95;;;;;;;;;;7374473;19;20380;-77
2022/10/16 04:39:05;;;;;;;13.03;6.20;;;;;;;;;;7376428;19;20780;-77
2022/10/16 04:41:30;;;;;;;11.38;5.22;;;;;;;;;;7379698;19;20284;-77
2022/10/16 04:43:55;;;;;;;10.13;5.70;;;;;;;;;;7380226;19;20371;-77
2022/10/16 04:46:21;;;;;;;8.83;5.20;;;;;;;;;;7373231;19;20428;-78
2022/10/16 04:48:46;;;;;;;9.52;5.50;;;;;;;;;;7379070;19;20286;-77
2022/10/16 04:51:11;;;;;;;7.78;5.20;;;;;;;;;;7381224;19;20115;-77
2022/10/16 04:53:37;;;;;;;12.75;5.85;;;;;;;;;;7370862;19;20014;-76
2022/10/16 04:56:02;;;;;;;10.35;5.25;;;;;;;;;;7378165;19;20006;-77
2022/10/16 04:58:27;;;;;;;8.90;5.22;;;;;;;;;;7378306;19;20495;-77
2022/10/16 05:00:52;;;;;;;9.20;5.87;;;;;;;;;;7371791;19;20104;-77
2022/10/16 05:03:18;;;;;;;8.82;5.65;;;;;;;;;;7372842;19;20462;-77
2022/10/16 05:05:44;;;;;;;12.57;5.37;;;;;;;;;;7377284;19;20011;-78
2022/10/16 05:08:09;;;;;;;10.25;5.22;;;;;;;;;;7376795;19;20249;-76
2022/10/16 05:10:35;;;;;;;9.68;5.53;;;;;;;;;;7378050;19;20006;-77
2022/10/16 05:13:00;;;;;;;12.23;5.23;;;;;;;;;;7379562;19;20010;-77
2022/10/16 05:15:25;;;;;;;9.83;4.43;;;;;;;;;;7376703;19;20263;-76
2022/10/16 05:17:52;;;;;;;7.57;4.50;;;;;;;;;;7375403;19;20809;-77
2022/10/16 05:20:17;;;;;;;8.20;4.95;;;;;;;;;;7381607;19;20114;-76
2022/10/16 05:22:42;;;;;;;9.73;5.40;;;;;;;;;;7369789;19;20015;-78
2022/10/16 05:25:07;;;;;;;8.13;4.87;;;;;;;;;;7378333;19;20271;-76
2022/10/16 05:27:33;;;;;;;9.00;4.97;;;;;;;;;;7377638;19;20266;-76
2022/10/16 05:29:58;;;;;;;10.53;5.20;;;;;;;;;;7375568;19;20022;-76
2022/10/16 05:32:23;;;;;;;7.72;4.75;;;;;;;;;;7379854;19;20280;-77
2022/10/16 05:34:48;;;;;;;8.20;5.13;;;;;;;;;;7379158;19;20007;-76
2022/10/16 05:37:13;;;;;;;12.48;5.40;;;;;;;;;;7372606;19;20255;-76
2022/10/16 05:39:39;;;;;;;8.87;5.20;;;;;;;;;;7378379;19;20024;-76
2022/10/16 05:42:04;;;;;;;7.90;5.40;;;;;;;;;;7379925;19;20782;-76
2022/10/16 05:44:29;;;;;;;8.38;4.95;;;;;;;;;;7376740;19;20011;-77
2022/10/16 05:46:55;;;;;;;9.35;4.88;;;;;;;;;;7374879;19;20086;-76
2022/10/16 05:49:20;;;;;;;12.47;5.33;;;;;;;;;;7380312;19;20101;-76
2022/10/16 05:51:45;;;;;;;10.90;4.63;;;;;;;;;;7376260;19;20630;-76
2022/10/16 05:54:10;;;;;;;7.75;4.78;;;;;;;;;;7372372;19;20014;-76
2022/10/16 05:56:36;;;;;;;11.40;5.78;;;;;;;;;;7376910;19;20010;-77
2022/10/16 05:59:02;;;;;;;10.40;4.83;;;;;;;;;;7374352;19;20022;-76
2022/10/16 06:01:27;;;;;;;6.97;5.05;;;;;;;;;;7377297;19;20751;-77
2022/10/16 06:03:53;;;;;;;9.93;4.53;;;;;;;;;;7378056;19;20007;-77
2022/10/16 06:06:20;;;;;;;11.25;4.82;;;;;;;;;;7374620;19;20081;-77
2022/10/16 06:08:46;;;;;;;13.18;4.60;;;;;;;;;;7374365;19;20459;-77
2022/10/16 06:11:12;;;;;;;7.50;4.35;;;;;;;;;;7376779;19;20533;-77
2022/10/16 06:13:38;;;;;;;8.10;4.07;;;;;;;;;;7376780;19;20443;-77
2022/10/16 06:16:04;;;;;;;6.55;3.90;;;;;;;;;;7373713;19;20523;-76
2022/10/16 06:18:29;;;;;;;7.55;3.40;;;;;;;;;;7373688;19;20018;-77
2022/10/16 06:20:55;;;;;;;8.88;3.35;;;;;;;;;;7376798;19;20027;-76
2022/10/16 06:23:20;;;;;;;7.13;3.53;;;;;;;;;;7374681;19;20063;-76
2022/10/16 06:25:46;;;;;;;6.13;3.50;;;;;;;;;;7375827;19;20463;-77
2022/10/16 06:28:11;;;;;;;10.53;3.30;;;;;;;;;;7364408;19;20347;-78
2022/10/16 06:30:36;;;;;;;5.90;3.38;;;;;;;;;;7360632;19;20243;-77
2022/10/16 06:33:01;;;;;;;9.40;3.03;;;;;;;;;;7377875;19;20018;-77
2022/10/16 06:35:27;;;;;;;7.68;3.22;;;;;;;;;;7377976;19;20263;-76
2022/10/16 06:37:53;;;;;;;5.95;3.20;;;;;;;;;;7373665;19;20015;-77
2022/10/16 06:40:18;;;;;;;5.93;3.05;;;;;;;;;;7376832;19;20347;-76
2022/10/16 06:42:43;;;;;;;10.32;3.45;;;;;;;;;;7376923;19;20098;-77
2022/10/16 06:45:08;;;;;;;5.28;2.80;;;;;;;;;;7374784;19;20062;-77
2022/10/16 06:47:34;;;;;;;8.43;3.10;;;;;;;;;;7368948;19;20088;-77
2022/10/16 06:49:59;;;;;;;5.30;2.47;;;;;;;;;;7380025;19;20455;-77
2022/10/16 06:52:24;;;;;;;6.07;2.80;;;;;;;;;;7380958;19;20022;-77
2022/10/16 06:54:49;;;;;;;7.00;2.70;;;;;;;;;;7383926;19;19999;-76
2022/10/16 06:57:15;;;;;;;6.82;2.80;;;;;;;;;;7386372;19;20562;-77
2022/10/16 06:59:40;;;;;;;8.68;3.03;;;;;;;;;;7374637;19;20126;-77
2022/10/16 07:02:06;;;;;;;6.57;2.73;;;;;;;;;;7381778;19;20055;-76
2022/10/16 07:04:31;;;;;;;6.85;2.90;;;;;;;;;;7383748;19;20834;-77
2022/10/16 07:06:57;;;;;;;7.23;3.07;;;;;;;;;;7380542;19;20020;-77
2022/10/16 07:09:22;;;;;;;7.00;2.95;;;;;;;;;;7384118;19;20278;-77
2022/10/16 07:11:47;;;;;;;5.57;3.05;;;;;;;;;;7384237;19;20015;-76
2022/10/16 07:14:15;;;;;;;9.60;2.65;;;;;;;;;;7384136;19;20018;-77
2022/10/16 07:16:40;;;;;;;6.78;2.60;;;;;;;;;;7377813;19;20082;-76
2022/10/16 07:19:05;;;;;;;4.93;2.72;;;;;;;;;;7383108;19;20040;-76
2022/10/16 07:21:35;;;;;;;5.37;2.40;;;;;;;;;;7383220;19;19990;-76
2022/10/16 07:24:00;;;;;;;5.75;2.80;;;;;;;;;;7378030;19;20015;-76
2022/10/16 07:26:26;;;;;;;5.13;2.85;;;;;;;;;;7381043;19;20002;-77
2022/10/16 07:28:52;;;;;;;5.38;2.83;;;;;;;;;;7377790;19;20445;-77
2022/10/16 07:31:18;;;;;;;5.63;2.65;;;;;;;;;;7385136;19;20104;-76
2022/10/16 07:33:44;;;;;;;8.07;2.45;;;;;;;;;;7384366;19;20010;-77
2022/10/16 07:36:10;;;;;;;6.00;2.20;;;;;;;;;;7381598;19;20043;-77
2022/10/16 07:38:35;;;;;;;5.47;2.22;;;;;;;;;;7380796;19;20477;-77
2022/10/16 07:41:02;;;;;;;5.53;2.10;;;;;;;;;;7384263;19;20019;-77
2022/10/16 07:43:28;;;;;;;6.53;2.00;;;;;;;;;;7380883;19;20033;-76
2022/10/16 07:45:54;;;;;;;9.25;2.25;;;;;;;;;;7381323;19;19995;-76
2022/10/16 07:48:19;;;;;;;3.67;1.98;;;;;;;;;;7377013;19;20018;-77
2022/10/16 07:50:45;;;;;;;4.32;1.83;;;;;;;;;;7374074;19;20105;-77
2022/10/16 07:53:11;;;;;;;4.05;1.73;;;;;;;;;;7376371;19;20010;-77
2022/10/16 07:55:36;;;;;;;5.03;1.58;;;;;;;;;;7378073;19;20420;-78
2022/10/16 07:58:01;;;;;;;4.15;1.60;;;;;;;;;;7378330;19;20363;-77
2022/10/16 08:00:26;;;;;;;4.10;1.42;;;;;;;;;;7375277;19;20451;-78
2022/10/16 08:02:52;;;;;;;7.18;1.98;;;;;;;;;;7371292;19;20002;-77
2022/10/16 08:05:17;;;;;;;5.40;1.90;;;;;;;;;;7380482;19;20078;-77
2022/10/16 08:07:42;;;;;;;4.97;1.70;;;;;;;;;;7377446;19;20247;-77
2022/10/16 08:10:15;;;;;;;6.23;1.50;;;;;;;;;;7382687;19;20046;-77
2022/10/16 08:12:40;;;;;;;5.13;1.47;;;;;;;;;;7378343;19;20588;-77
2022/10/16 08:15:06;;;;;;;3.33;1.10;;;;;;;;;;7377095;19;20593;-78
2022/10/16 08:17:31;;;;;;;5.07;1.20;;;;;;;;;;7380923;19;20252;-78
2022/10/16 08:19:56;;;;;;;3.83;1.00;;;;;;;;;;7378836;19;20021;-78
2022/10/16 08:22:21;;;;;;;7.47;1.30;;;;;;;;;;7372266;19;20268;-78
2022/10/16 08:24:46;;;;;;;7.10;1.50;;;;;;;;;;7365393;19;20338;-78
2022/10/16 08:27:11;;;;;;;5.67;1.40;;;;;;;;;;7376997;19;20339;-77
2022/10/16 08:29:38;;;;;;;3.80;1.20;;;;;;;;;;7380982;19;20235;-78
2022/10/16 08:32:03;;;;;;;3.45;1.38;;;;;;;;;;7377023;19;20030;-77
2022/10/16 08:34:28;;;;;;;3.33;1.30;;;;;;;;;;7377584;19;20437;-77
2022/10/16 08:36:54;;;;;;;4.07;1.42;;;;;;;;;;7374058;19;20366;-78
2022/10/16 08:39:20;;;;;;;3.33;1.08;;;;;;;;;;7379570;19;20007;-77
2022/10/16 08:41:51;;;;;;;3.85;1.23;;;;;;;;;;7379253;19;20015;-76
2022/10/16 08:44:19;;;;;;;5.18;1.10;;;;;;;;;;7377752;19;20003;-77
2022/10/16 08:46:44;;;;;;;4.32;1.38;;;;;;;;;;7376663;19;20082;-78
2022/10/16 08:49:12;;;;;;;3.42;1.25;;;;;;;;;;7376424;19;20007;-77
2022/10/16 08:51:37;;;;;;;5.47;1.27;;;;;;;;;;7375271;19;20477;-77
2022/10/16 08:54:04;;;;;;;2.83;1.10;;;;;;;;;;7376351;19;19999;-77
2022/10/16 08:56:29;;;;;;;6.07;1.40;;;;;;;;;;7378935;19;20222;-77
2022/10/16 08:58:55;;;;;;;5.15;1.38;;;;;;;;;;7377829;19;20376;-77
2022/10/16 09:01:22;;;;;;;6.13;1.50;;;;;;;;;;7363962;19;19999;-77
2022/10/16 09:04:02;;;;;;;3.45;1.00;;;;;;;;;;7377665;19;20350;-78
2022/10/16 09:06:46;;;;;;;6.45;1.20;;;;;;;;;;7376814;19;20019;-77
2022/10/16 09:09:30;;;;;;;4.10;1.20;;;;;;;;;;7375923;19;20013;-77
2022/10/16 09:11:58;;;;;;;3.00;0.95;;;;;;;;;;7379153;19;20006;-77
2022/10/16 09:14:42;;;;;;;3.17;0.95;;;;;;;;;;7377962;19;20003;-78
2022/10/16 09:17:22;;;;;;;4.47;0.80;;;;;;;;;;7375703;19;20482;-77
2022/10/16 09:20:07;;;;;;;2.60;0.80;;;;;;;;;;7376924;19;20025;-78
2022/10/16 09:22:32;;;;;;;3.40;1.10;;;;;;;;;;7372311;19;20487;-78
2022/10/16 09:25:00;;;;;;;2.58;0.90;;;;;;;;;;7371546;19;20006;-78
2022/10/16 09:27:25;;;;;;;3.33;0.90;;;;;;;;;;7376177;19;20058;-78
2022/10/16 09:29:51;;;;;;;3.08;0.73;;;;;;;;;;7377464;19;20456;-79
2022/10/16 09:32:17;;;;;;;4.70;1.30;;;;;;;;;;7379540;19;20027;-79
2022/10/16 09:34:53;;;;;;;4.40;1.10;;;;;;;;;;7362680;19;20061;-79
2022/10/16 09:37:19;;;;;;;2.17;0.63;;;;;;;;;;7372642;19;20014;-77
2022/10/16 09:39:50;;;;;;;7.38;0.80;;;;;;;;;;7377551;19;20597;-78
2022/10/16 09:42:20;;;;;;;3.60;0.90;;;;;;;;;;7376244;19;20017;-78
2022/10/16 09:44:49;;;;;;;1.50;0.63;;;;;;;;;;7379181;19;20543;-78
2022/10/16 09:47:20;;;;;;;3.08;0.80;;;;;;;;;;7373519;19;19995;-78
2022/10/16 09:50:01;;;;;;;2.25;0.88;;;;;;;;;;7379751;19;20030;-77
2022/10/16 09:52:26;;;;;;;3.15;0.70;;;;;;;;;;7376258;19;20007;-78
2022/10/16 09:54:55;;;;;;;2.97;0.90;;;;;;;;;;7378715;19;20025;-77
2022/10/16 09:57:21;;;;;;;2.15;0.60;;;;;;;;;;7380128;19;20126;-77
2022/10/16 09:59:47;;;;;;;4.75;0.60;;;;;;;;;;7379871;19;20014;-77
2022/10/16 10:02:14;;;;;;;3.20;0.47;;;;;;;;;;7375024;19;20014;-77
2022/10/16 10:04:56;;;;;;;3.42;1.08;;;;;;;;;;7375465;19;20007;-77
2022/10/16 10:07:33;;;;;;;5.32;0.80;;;;;;;;;;7376942;19;20015;-77
2022/10/16 10:09:59;;;;;;;3.47;0.70;;;;;;;;;;7377995;19;20007;-76
2022/10/16 10:12:25;;;;;;;2.10;0.60;;;;;;;;;;7380433;19;20483;-76
2022/10/16 10:14:51;;;;;;;3.50;0.80;;;;;;;;;;7377609;19;20042;-77
2022/10/16 10:17:19;;;;;;;2.50;0.80;;;;;;;;;;7375191;19;20437;-79
2022/10/16 10:19:44;;;;;;;2.25;0.65;;;;;;;;;;7378175;19;20037;-76
2022/10/16 10:22:17;;;;;;;4.28;0.88;;;;;;;;;;7372253;19;20572;-77
2022/10/16 10:24:43;;;;;;;1.17;0.50;;;;;;;;;;7376777;19;20025;-76
2022/10/16 10:27:13;;;;;;;2.63;0.60;;;;;;;;;;7379873;19;19998;-77
2022/10/16 10:29:48;;;;;;;4.32;0.70;;;;;;;;;;7379863;19;20013;-76
2022/10/16 10:32:15;;;;;;;4.47;0.80;;;;;;;;;;7378042;19;20020;-79
2022/10/16 10:34:43;;;;;;;2.42;0.70;;;;;;;;;;7376722;19;20014;-76
2022/10/16 10:37:18;;;;;;;2.72;0.70;;;;;;;;;;7361594;19;19998;-80
2022/10/16 10:39:47;;;;;;;2.15;0.55;;;;;;;;;;7363683;19;20010;-78
2022/10/16 10:42:27;;;;;;;5.13;0.80;;;;;;;;;;7375274;19;20011;-78
2022/10/16 10:45:01;;;;;;;3.08;0.52;;;;;;;;;;7369606;19;20651;-78
2022/10/16 10:47:32;;;;;;;2.03;0.50;;;;;;;;;;7374573;19;20557;-77
2022/10/16 10:50:06;;;;;;;2.28;0.70;;;;;;;;;;7378538;19;20003;-77
2022/10/16 10:52:51;;;;;;;4.35;0.63;;;;;;;;;;7375859;19;20030;-77
2022/10/16 10:55:20;;;;;;;2.60;0.65;;;;;;;;;;7376812;19;20006;-77
2022/10/16 10:58:04;;;;;;;1.40;0.52;;;;;;;;;;7375925;19;20015;-75
2022/10/16 11:00:46;;;;;;;3.25;0.70;;;;;;;;;;7371786;19;20463;-77
2022/10/16 11:03:17;;;;;;;3.15;0.50;;;;;;;;;;7370285;19;20002;-78
2022/10/16 11:05:49;;;;;;;2.15;0.68;;;;;;;;;;7367834;19;20506;-78
2022/10/16 11:08:17;;;;;;;2.88;0.75;;;;;;;;;;7369827;19;20014;-76
2022/10/16 11:10:52;;;;;;;4.60;0.70;;;;;;;;;;7375241;19;20002;-77
2022/10/16 11:13:17;;;;;;;2.10;0.80;;;;;;;;;;7377020;19;20019;-77
2022/10/16 11:15:44;;;;;;;2.30;0.70;;;;;;;;;;7375707;19;20555;-78
2022/10/16 11:18:15;;;;;;;2.10;0.70;;;;;;;;;;7377453;19;20589;-77
2022/10/16 11:21:01;;;;;;;5.22;0.90;;;;;;;;;;7371399;19;20297;-77
2022/10/16 11:23:28;;;;;;;3.35;0.82;;;;;;;;;;7373769;19;20003;-77
2022/10/16 11:25:55;;;;;;;2.65;0.70;;;;;;;;;;7373801;19;20038;-78
2022/10/16 11:28:24;;;;;;;3.67;0.65;;;;;;;;;;7376976;19;20329;-76
2022/10/16 11:30:57;;;;;;;5.45;0.80;;;;;;;;;;7375111;19;20007;-76
2022/10/16 11:33:31;;;;;;;4.50;0.93;;;;;;;;;;7376473;19;20031;-76
2022/10/16 11:36:11;;;;;;;3.45;0.70;;;;;;;;;;7377536;19;20006;-77
2022/10/16 11:38:43;;;;;;;4.43;0.75;;;;;;;;;;7380933;19;20034;-76
2022/10/16 11:41:15;;;;;;;4.00;0.80;;;;;;;;;;7386069;19;20010;-77
2022/10/16 11:43:45;;;;;;;4.15;0.90;;;;;;;;;;7383152;19;20002;-77
2022/10/16 11:46:13;;;;;;;3.25;0.70;;;;;;;;;;7380922;19;20309;-77
2022/10/16 11:48:45;;;;;;;4.18;0.90;;;;;;;;;;7379465;19;20015;-77
2022/10/16 11:51:25;;;;;;;4.80;0.70;;;;;;;;;;7377109;19;20009;-77
2022/10/16 11:53:56;;;;;;;2.00;0.80;;;;;;;;;;7379185;19;20401;-76
2022/10/16 11:56:22;;;;;;;4.63;0.80;;;;;;;;;;7380793;19;20364;-77
2022/10/16 11:58:47;;;;;;;3.08;0.60;;;;;;;;;;7383020;19;19995;-77
2022/10/16 12:01:17;;;;;;;1.63;0.73;;;;;;;;;;7383593;19;20381;-77
2022/10/16 12:03:46;;;;;;;2.47;0.70;;;;;;;;;;7381162;19;20004;-76
2022/10/16 12:06:34;;;;;;;7.45;0.80;;;;;;;;;;7375538;19;20026;-77
2022/10/16 12:09:00;;;;;;;5.28;1.08;;;;;;;;;;7377352;19;20003;-77
2022/10/16 12:11:28;;;;;;;2.88;0.90;;;;;;;;;;7380302;19;20035;-77
2022/10/16 12:14:04;;;;;;;2.33;0.65;;;;;;;;;;7383431;19;20007;-77
2022/10/16 12:16:29;;;;;;;4.32;0.73;;;;;;;;;;7380176;19;20454;-77
2022/10/16 12:19:11;;;;;;;5.63;0.90;;;;;;;;;;7379131;19;20478;-76
2022/10/16 12:21:37;;;;;;;4.35;0.80;;;;;;;;;;7382889;19;20082;-76
2022/10/16 12:24:06;;;;;;;2.80;0.63;;;;;;;;;;7379658;19;20047;-76
2022/10/16 12:26:32;;;;;;;2.47;0.47;;;;;;;;;;7374855;19;20018;-78
2022/10/16 12:29:12;;;;;;;2.92;0.90;;;;;;;;;;7382272;19;20026;-77
2022/10/16 12:31:43;;;;;;;5.22;0.80;;;;;;;;;;7382621;19;20070;-77
2022/10/16 12:34:20;;;;;;;2.10;0.65;;;;;;;;;;7379275;19;19998;-77
2022/10/16 12:36:46;;;;;;;4.60;1.42;;;;;;;;;;7381298;19;20011;-77
2022/10/16 12:39:20;;;;;;;3.65;0.60;;;;;;;;;;7376335;19;20030;-77
2022/10/16 12:41:45;;;;;;;1.27;0.40;;;;;;;;;;7381354;19;20015;-77
2022/10/16 12:44:22;;;;;;;2.57;0.63;;;;;;;;;;7379472;19;20514;-77
2022/10/16 12:46:48;;;;;;;1.45;0.73;;;;;;;;;;7378703;19;20018;-77
2022/10/16 12:49:13;;;;;;;3.88;0.63;;;;;;;;;;7382283;19;20130;-77
2022/10/16 12:51:38;;;;;;;1.93;0.57;;;;;;;;;;7372332;19;20015;-78
2022/10/16 12:54:11;;;;;;;2.55;0.70;;;;;;;;;;7378074;19;20010;-75
2022/10/16 12:56:49;;;;;;;2.58;0.60;;;;;;;;;;7379332;19;19998;-77
2022/10/16 12:59:20;;;;;;;1.98;0.70;;;;;;;;;;7379983;19;20403;-77
2022/10/16 13:01:56;;;;;;;3.83;0.80;;;;;;;;;;7375371;19;20526;-77
2022/10/16 13:04:36;;;;;;;2.47;0.82;;;;;;;;;;7379325;19;20022;-77
2022/10/16 13:07:23;;;;;;;2.13;0.65;;;;;;;;;;7378229;19;20007;-78
2022/10/16 13:09:54;;;;;;;3.75;0.73;;;;;;;;;;7381054;19;20018;-77
2022/10/16 13:12:26;;;;;;;3.42;0.80;;;;;;;;;;7380919;19;20029;-76
2022/10/16 13:15:16;;;;;;;5.78;0.70;;;;;;;;;;7380450;19;20238;-77
2022/10/16 13:17:41;;;;;;;3.72;0.90;;;;;;;;;;7367717;19;20009;-78
2022/10/16 13:20:25;;;;;;;1.80;0.70;;;;;;;;;;7369571;19;20426;-77
2022/10/16 13:23:06;;;;;;;2.22;0.60;;;;;;;;;;7371195;19;20013;-77
2022/10/16 13:25:34;;;;;;;2.63;0.85;;;;;;;;;;7376462;19;20014;-77
2022/10/16 13:28:00;;;;;;;2.25;0.75;;;;;;;;;;7380673;19;20002;-76
2022/10/16 13:30:49;;;;;;;4.47;0.90;;;;;;;;;;7381678;19;20385;-76
2022/10/16 13:33:17;;;;;;;2.13;0.88;;;;;;;;;;7376191;19;20542;-76
2022/10/16 13:35:50;;;;;;;3.28;1.00;;;;;;;;;;7379645;19;20017;-76
2022/10/16 13:38:20;;;;;;;3.63;1.00;;;;;;;;;;7377251;19;20029;-76
2022/10/16 13:41:04;;;;;;;5.38;1.05;;;;;;;;;;7352403;19;20051;-78
2022/10/16 13:43:41;;;;;;;3.13;1.10;;;;;;;;;;7371366;19;20018;-78
2022/10/16 13:46:14;;;;;;;3.85;1.13;;;;;;;;;;7377371;19;20002;-77
2022/10/16 13:48:40;;;;;;;2.78;1.20;;;;;;;;;;7380277;19;20030;-77
2022/10/16 13:51:12;;;;;;;4.82;1.30;;;;;;;;;;7376990;19;20086;-77
2022/10/16 13:53:38;;;;;;;3.83;1.08;;;;;;;;;;7376232;19;20551;-76
2022/10/16 13:56:04;;;;;;;4.03;1.50;;;;;;;;;;7379285;19;20027;-77
2022/10/16 13:58:30;;;;;;;3.55;1.10;;;;;;;;;;7377370;19;20433;-76
2022/10/16 14:00:56;;;;;;;2.40;0.93;;;;;;;;;;7376692;19;20405;-77
2022/10/16 14:03:22;;;;;;;4.07;1.10;;;;;;;;;;7380230;19;20976;-76
2022/10/16 14:05:56;;;;;;;3.53;1.00;;;;;;;;;;7373397;19;20374;-77
2022/10/16 14:08:23;;;;;;;2.97;1.15;;;;;;;;;;7375102;19;20015;-76
2022/10/16 14:10:53;;;;;;;4.28;0.95;;;;;;;;;;7373672;19;20459;-77
2022/10/16 14:13:20;;;;;;;2.55;1.05;;;;;;;;;;7380714;19;20025;-77
2022/10/16 14:15:47;;;;;;;3.00;1.08;;;;;;;;;;7377660;19;19999;-77
2022/10/16 14:18:23;;;;;;;3.83;1.65;;;;;;;;;;7375987;19;20025;-76
2022/10/16 14:20:49;;;;;;;3.60;1.38;;;;;;;;;;7379338;19;20022;-77
2022/10/16 14:23:20;;;;;;;3.22;1.30;;;;;;;;;;7371321;19;20074;-76
2022/10/16 14:25:45;;;;;;;8.95;1.17;;;;;;;;;;7373069;19;20006;-77
2022/10/16 14:28:17;;;;;;;6.00;1.35;;;;;;;;;;7379461;19;20006;-76
2022/10/16 14:31:08;;;;;;;6.47;1.40;;;;;;;;;;7378054;19;19998;-77
2022/10/16 14:33:34;;;;;;;4.40;1.30;;;;;;;;;;7371882;19;20038;-76
2022/10/16 14:35:59;;;;;;;7.90;1.63;;;;;;;;;;7377595;19;20383;-76
2022/10/16 14:38:24;;;;;;;6.05;1.70;;;;;;;;;;7374335;19;20003;-77
2022/10/16 14:40:50;;;;;;;4.30;1.27;;;;;;;;;;7375703;19;20030;-76
2022/10/16 14:43:20;;;;;;;3.65;1.45;;;;;;;;;;7379536;19;19995;-77
2022/10/16 14:45:51;;;;;;;5.05;1.92;;;;;;;;;;7373880;19;20093;-75